CheckWX is a tool to help pilots better visualize weather data.  It is not intended as a substitute for an official pre-flight weather briefing.

07:12:07 UTC

KMCB TAF
Mc Comb / Pike County / John E Lewis Field Airport
Mc Comb, Mississippi, USA
KMCB 150527Z 1506/1606 36005KT P6SM SCT009 OVC050 TEMPO 1506/1508 BKN009 FM150800 VRB03KT P6SM SCT009 BKN050 OVC110 FM151000 VRB04KT P6SM FEW120 SCT250 FM151500 01006KT P6SM SKC FM160000 VRB04KT P6SM SKC

Nov-15@
06:00 UTC

Nov-15 @ 06:00 UTC

Nov-15@
08:00 UTC

Nov-15 @ 08:00 UTC

KMCB 150527Z 1506/1606 36005KT P6SM SCT009 OVC050
Wind
  • 360° at 5 KTS
Cloud Levels
  • Scattered at 900' AGL
  • Overcast at 5,000' AGL

Nov-15@
06:00 UTC

Nov-15 @ 06:00 UTC

Nov-15@
08:00 UTC

Nov-15 @ 08:00 UTC

TEMPO 1506/1508 BKN009

Temporary

Temporary Changes expected for less than half the time period

Cloud Levels
  • Broken at 900' AGL

Nov-15@
08:00 UTC

Nov-15 @ 08:00 UTC

Nov-15@
10:00 UTC

Nov-15 @ 10:00 UTC

FM150800 VRB03KT P6SM SCT009 BKN050 OVC110

From

From Standard forecast or significant change

Wind
  • Variable at 3 KTS
Cloud Levels
  • Scattered at 900' AGL
  • Broken at 5,000' AGL
  • Overcast at 11,000' AGL

Nov-15@
10:00 UTC

Nov-15 @ 10:00 UTC

Nov-15@
15:00 UTC

Nov-15 @ 15:00 UTC

FM151000 VRB04KT P6SM FEW120 SCT250

From

From Standard forecast or significant change

Wind
  • Variable at 4 KTS
Cloud Levels
  • Few at 12,000' AGL
  • Scattered at 25,000' AGL

Nov-15@
15:00 UTC

Nov-15 @ 15:00 UTC

Nov-16@
00:00 UTC

Nov-16 @ 00:00 UTC

FM151500 01006KT P6SM SKC

From

From Standard forecast or significant change

Wind
  • 010° at 6 KTS
Cloud Levels
  • Clear skies

Nov-16@
00:00 UTC

Nov-16 @ 00:00 UTC

Nov-16@
06:00 UTC

Nov-16 @ 06:00 UTC

FM160000 VRB04KT P6SM SKC

From

From Standard forecast or significant change

Wind
  • Variable at 4 KTS
Cloud Levels
  • Clear skies